Time;durP1;ratioP1;P1;durP2;ratioP2;P2;SDS_P1;SDS_P2;PMS_P1;PMS_P2;Temp;Humidity;BMP_temperature;BMP_pressure;BME280_temperature;BME280_humidity;BME280_pressure;Samples;Min_cycle;Max_cycle;Signal;HPM_P1;HPM_P2
2021/12/24 00:00:42;;;;;;;5.70;3.60;;;;;;;7.28;82.38;98119.69;5074738;28;20036;-72
2021/12/24 00:03:08;;;;;;;8.90;3.60;;;;;;;7.34;82.74;98129.66;5072347;28;20543;-73
2021/12/24 00:05:35;;;;;;;8.15;3.50;;;;;;;7.32;82.68;98127.16;5070193;28;20119;-73
2021/12/24 00:08:00;;;;;;;6.82;3.50;;;;;;;7.22;82.45;98089.84;5069667;28;20537;-73
2021/12/24 00:10:26;;;;;;;6.68;3.22;;;;;;;7.22;83.69;98116.75;5070523;28;20108;-72
2021/12/24 00:13:02;;;;;;;5.57;3.38;;;;;;;7.10;84.11;98115.66;5069546;28;20037;-73
2021/12/24 00:15:50;;;;;;;5.53;3.42;;;;;;;7.09;83.83;98108.63;5067231;28;20127;-73
2021/12/24 00:36:41;;;;;;;6.38;3.60;;;;;;;6.34;87.37;98084.13;5067291;28;20039;-73
2021/12/24 00:39:06;;;;;;;9.25;4.40;;;;;;;6.34;87.59;98073.38;5073522;28;20473;-73
2021/12/24 00:41:31;;;;;;;8.48;3.95;;;;;;;6.30;88.20;98073.94;5062509;28;20047;-73
2021/12/24 00:43:58;;;;;;;7.97;4.40;;;;;;;6.46;87.89;98105.06;5076945;28;20016;-73
2021/12/24 00:46:23;;;;;;;9.43;4.20;;;;;;;6.49;88.29;98097.44;5069181;28;20042;-73
2021/12/24 00:48:49;;;;;;;7.32;3.72;;;;;;;6.51;88.05;98098.09;5069521;28;20024;-73
2021/12/24 00:51:30;;;;;;;9.00;4.30;;;;;;;6.56;88.01;98086.75;5070322;28;20035;-73
2021/12/24 00:56:39;;;;;;;6.93;3.80;;;;;;;6.49;87.94;98083.19;5070889;28;20050;-73
2021/12/24 00:59:05;;;;;;;5.68;3.67;;;;;;;6.36;87.65;98063.22;5072514;28;20111;-73
2021/12/24 01:01:30;;;;;;;8.27;3.72;;;;;;;6.36;87.84;98067.78;5070382;28;20103;-73
2021/12/24 01:03:55;;;;;;;5.53;3.60;;;;;;;6.39;88.41;98082.69;5073106;28;20028;-72
2021/12/24 01:06:20;;;;;;;7.20;3.80;;;;;;;6.22;88.64;98077.59;5070131;28;20032;-73
2021/12/24 01:08:46;;;;;;;7.82;3.85;;;;;;;6.00;89.51;98049.09;5072025;28;20048;-73
2021/12/24 01:11:11;;;;;;;8.23;3.58;;;;;;;6.01;89.69;98043.53;5066018;28;20051;-73
2021/12/24 01:13:37;;;;;;;7.65;3.72;;;;;;;5.96;89.90;98050.50;5069409;28;20382;-73
2021/12/24 01:16:13;;;;;;;6.25;3.72;;;;;;;6.07;89.37;98074.16;5085217;28;20516;-73
2021/12/24 01:19:04;;;;;;;9.30;3.30;;;;;;;6.00;90.13;98078.63;5072294;28;20028;-73
2021/12/24 01:24:02;;;;;;;7.72;4.13;;;;;;;5.86;90.64;98067.72;5072921;28;20397;-73
2021/12/24 01:40:18;;;;;;;8.13;3.95;;;;;;;6.77;87.20;98067.06;5033821;28;1061854;-72
2021/12/24 01:42:47;;;;;;;8.50;3.97;;;;;;;6.72;86.89;98075.69;5076422;28;20093;-73
2021/12/24 01:45:31;;;;;;;6.53;3.80;;;;;;;6.61;87.71;98078.13;5072102;28;20052;-74
2021/12/24 01:48:00;;;;;;;5.07;3.20;;;;;;;6.55;87.85;98074.38;5065141;28;20032;-73
2021/12/24 01:50:29;;;;;;;5.72;3.45;;;;;;;6.49;88.49;98067.06;5068060;28;20039;-74
2021/12/24 01:52:56;;;;;;;6.32;3.83;;;;;;;6.50;88.07;98074.13;5076693;28;20078;-73
2021/12/24 01:55:23;;;;;;;5.40;3.55;;;;;;;6.44;87.01;98031.88;5072538;28;20031;-73
2021/12/24 01:57:49;;;;;;;8.00;4.20;;;;;;;6.49;86.97;98040.19;5068818;28;20032;-73
2021/12/24 02:00:18;;;;;;;8.18;3.95;;;;;;;6.58;87.24;98047.91;5070701;28;20051;-72
2021/12/24 02:02:44;;;;;;;10.18;3.63;;;;;;;6.55;87.26;98047.50;5078889;28;20041;-72
2021/12/24 02:05:10;;;;;;;7.15;3.53;;;;;;;6.54;87.04;98053.88;5093027;28;20641;-72
2021/12/24 02:07:36;;;;;;;7.25;3.60;;;;;;;6.46;86.82;98025.28;5071348;28;20421;-72
2021/12/24 02:10:03;;;;;;;10.10;3.80;;;;;;;6.39;87.21;98008.28;5068034;28;20107;-72
2021/12/24 02:12:31;;;;;;;6.03;3.20;;;;;;;6.56;87.32;98041.91;5080043;28;20020;-73
2021/12/24 02:14:59;;;;;;;6.40;3.72;;;;;;;6.21;87.55;98008.81;5074171;28;20363;-73
2021/12/24 02:30:48;;;;;;;6.07;3.63;;;;;;;6.51;88.47;98038.16;5073283;28;20047;-72
2021/12/24 02:33:14;;;;;;;7.70;4.03;;;;;;;6.48;88.07;98022.41;5077922;28;20474;-73
2021/12/24 02:35:41;;;;;;;5.00;2.83;;;;;;;6.72;87.37;98018.44;5071414;28;20028;-72
2021/12/24 02:38:07;;;;;;;4.82;3.00;;;;;;;6.71;86.32;98025.66;5072660;28;20055;-72
2021/12/24 02:40:34;;;;;;;4.90;3.08;;;;;;;6.53;86.30;98011.91;5074653;28;20397;-72
2021/12/24 02:42:59;;;;;;;6.72;3.58;;;;;;;6.32;87.86;97991.31;5078941;28;20028;-74
2021/12/24 02:45:27;;;;;;;7.07;3.20;;;;;;;6.53;87.57;98003.84;5070694;28;20441;-73
2021/12/24 02:56:05;;;;;;;6.13;3.38;;;;;;;6.86;86.81;97987.06;5083681;28;20125;-73
2021/12/24 02:58:45;;;;;;;6.63;3.00;;;;;;;6.63;86.89;97969.38;5081936;28;20035;-72
2021/12/24 03:01:14;;;;;;;5.20;2.92;;;;;;;6.69;87.13;97986.56;5068303;28;20016;-75
2021/12/24 03:03:39;;;;;;;4.88;3.03;;;;;;;6.64;87.36;97989.84;5067881;28;20024;-73
2021/12/24 03:06:06;;;;;;;5.88;3.17;;;;;;;6.51;87.52;97970.97;5068350;28;20035;-73
2021/12/24 03:08:33;;;;;;;6.70;3.40;;;;;;;6.41;87.83;97976.69;5068995;28;20292;-73
2021/12/24 03:10:59;;;;;;;5.93;2.85;;;;;;;6.46;89.00;97984.16;5070071;28;20028;-71
2021/12/24 03:13:26;;;;;;;8.20;3.22;;;;;;;6.46;88.70;97976.91;5073377;28;20146;-73
2021/12/24 03:15:54;;;;;;;6.13;2.92;;;;;;;6.50;89.01;97977.38;5073450;28;20032;-73
2021/12/24 03:18:24;;;;;;;5.18;3.22;;;;;;;6.39;88.71;97964.47;5071837;28;20466;-73
2021/12/24 03:20:58;;;;;;;8.02;3.08;;;;;;;6.46;88.27;97976.91;5067844;28;20107;-73
2021/12/24 03:23:35;;;;;;;6.72;3.80;;;;;;;6.55;88.58;97983.81;5074773;28;20048;-73
2021/12/24 03:26:01;;;;;;;6.18;3.55;;;;;;;6.53;88.13;97974.28;5073256;28;20043;-73
2021/12/24 03:28:26;;;;;;;8.50;3.88;;;;;;;6.48;87.80;97974.06;5072752;28;20021;-73
2021/12/24 03:30:52;;;;;;;4.97;3.17;;;;;;;6.21;88.48;97947.03;5100261;28;20058;-74
2021/12/24 03:33:17;;;;;;;6.57;3.67;;;;;;;6.07;88.57;97929.16;5086475;28;20028;-73
2021/12/24 03:35:42;;;;;;;8.27;3.92;;;;;;;6.10;88.73;97963.66;5102056;28;20023;-74
2021/12/24 03:38:08;;;;;;;6.57;4.00;;;;;;;6.07;89.46;97969.41;5087378;28;20297;-74
2021/12/24 03:40:33;;;;;;;7.47;3.60;;;;;;;5.92;89.59;97951.53;5093997;28;20025;-73
2021/12/24 03:42:59;;;;;;;6.47;3.47;;;;;;;6.02;89.92;97969.19;5091097;28;20036;-74
2021/12/24 03:45:34;;;;;;;8.10;3.42;;;;;;;5.83;90.38;97931.22;5093936;28;20039;-73
2021/12/24 03:48:03;;;;;;;7.57;3.00;;;;;;;6.08;90.26;97949.63;5086002;28;20036;-74
2021/12/24 03:50:46;;;;;;;7.35;3.63;;;;;;;6.10;90.38;97947.53;5086343;28;20021;-74
2021/12/24 03:56:09;;;;;;;7.13;3.70;;;;;;;6.06;90.42;97949.81;5046343;28;20206;-73
2021/12/24 03:58:34;;;;;;;5.25;3.22;;;;;;;5.95;90.11;97922.66;5089543;28;20021;-73
2021/12/24 04:00:59;;;;;;;8.25;3.78;;;;;;;6.06;90.04;97924.81;5099432;28;20032;-73
2021/12/24 04:03:25;;;;;;;7.15;3.45;;;;;;;6.37;89.37;97924.38;5097872;28;20024;-73
2021/12/24 04:05:50;;;;;;;10.48;3.30;;;;;;;6.49;88.76;97949.66;5102576;28;20024;-73
2021/12/24 04:08:16;;;;;;;5.68;2.88;;;;;;;6.50;88.48;97924.47;5077700;28;20035;-73
2021/12/24 04:10:41;;;;;;;6.15;2.88;;;;;;;6.70;86.75;97929.91;5074646;28;20023;-72
2021/12/24 04:13:09;;;;;;;4.80;2.92;;;;;;;6.63;86.52;97918.31;5072853;28;20029;-73
2021/12/24 04:15:36;;;;;;;5.97;3.15;;;;;;;6.73;87.08;97937.59;5073077;28;20032;-72
2021/12/24 04:18:11;;;;;;;7.32;2.97;;;;;;;6.44;88.25;97913.66;5081943;28;20109;-72
2021/12/24 04:26:04;;;;;;;10.27;4.10;;;;;;;6.10;89.92;97913.50;5073222;28;20082;-73
2021/12/24 04:28:29;;;;;;;7.90;3.92;;;;;;;6.15;90.05;97926.31;5073055;28;20029;-73
2021/12/24 04:30:55;;;;;;;6.82;4.30;;;;;;;6.18;89.82;97925.09;5074427;28;20067;-73
2021/12/24 04:33:27;;;;;;;7.80;4.55;;;;;;;5.89;90.27;97895.56;5082948;28;20103;-74
2021/12/24 04:52:38;;;;;;;8.00;2.75;;;;;;;6.56;89.42;97902.16;5024108;28;20036;-73
2021/12/24 05:03:25;;;;;;;8.00;3.67;;;;;;;6.68;90.26;97918.56;5031348;28;20068;-73
2021/12/24 05:05:55;;;;;;;5.45;3.38;;;;;;;6.73;90.40;97918.78;5020118;28;20029;-73
2021/12/24 05:08:27;;;;;;;7.45;3.08;;;;;;;6.91;88.78;97920.06;5020082;28;20391;-73
2021/12/24 05:10:53;;;;;;;7.60;3.35;;;;;;;6.79;88.74;97914.47;5034202;28;20052;-76
2021/12/24 05:13:20;;;;;;;9.25;4.35;;;;;;;6.63;88.13;97907.56;5039947;28;20383;-77
2021/12/24 05:15:49;;;;;;;8.93;3.88;;;;;;;6.55;89.65;97894.31;5034048;28;20529;-71
2021/12/24 05:18:47;;;;;;;4.88;3.03;;;;;;;6.67;90.52;97908.81;5008414;28;20026;-71
2021/12/24 05:23:56;;;;;;;4.43;2.65;;;;;;;6.85;90.68;97912.81;5028548;28;20083;-73
2021/12/24 05:26:21;;;;;;;3.95;2.80;;;;;;;6.86;90.74;97895.66;5022965;28;20025;-74
2021/12/24 05:28:46;;;;;;;4.95;2.72;;;;;;;6.96;90.39;97898.78;5023461;28;20037;-74
2021/12/24 05:31:13;;;;;;;6.45;2.75;;;;;;;6.87;90.32;97875.81;5022089;28;20057;-74
2021/12/24 05:33:38;;;;;;;6.43;2.63;;;;;;;6.94;90.73;97884.69;5048110;28;20022;-74
2021/12/24 05:36:03;;;;;;;5.00;2.83;;;;;;;6.92;91.32;97876.03;5032518;28;20103;-71
2021/12/24 05:38:30;;;;;;;5.07;2.88;;;;;;;7.02;91.39;97889.91;5037795;28;20032;-73
2021/12/24 05:40:55;;;;;;;5.28;3.10;;;;;;;7.02;91.44;97884.50;5017204;28;20030;-73
2021/12/24 05:43:21;;;;;;;5.13;2.92;;;;;;;7.07;91.49;97898.19;5027551;28;20535;-73
2021/12/24 05:45:46;;;;;;;8.88;3.42;;;;;;;6.98;91.81;97908.31;5033014;28;20517;-73
2021/12/24 05:48:11;;;;;;;5.78;3.08;;;;;;;6.99;92.52;97901.06;5014824;28;20030;-77
2021/12/24 05:50:37;;;;;;;4.35;2.70;;;;;;;6.91;92.90;97898.56;5032489;28;20104;-75
2021/12/24 05:53:02;;;;;;;5.15;2.80;;;;;;;7.12;93.09;97901.09;5016604;28;20695;-77
2021/12/24 05:55:27;;;;;;;4.80;2.08;;;;;;;7.08;92.44;97878.34;5009390;28;20017;-72
2021/12/24 05:57:53;;;;;;;5.57;2.75;;;;;;;7.09;92.41;97893.44;5029759;28;20099;-74
2021/12/24 06:00:18;;;;;;;4.63;2.80;;;;;;;6.92;92.55;97889.47;5006984;28;20037;-73
2021/12/24 06:02:44;;;;;;;8.65;3.88;;;;;;;6.86;92.83;97901.03;5029964;28;20084;-73
2021/12/24 06:05:09;;;;;;;6.10;3.53;;;;;;;6.78;93.03;97886.72;5018139;28;20021;-72
2021/12/24 06:07:34;;;;;;;10.25;3.80;;;;;;;6.74;93.44;97892.72;5016505;28;20029;-74
2021/12/24 06:10:00;;;;;;;7.20;3.60;;;;;;;6.94;93.29;97898.16;5027659;28;20037;-73
2021/12/24 06:12:25;;;;;;;10.07;4.00;;;;;;;6.92;93.69;97903.75;5021822;28;20360;-73
2021/12/24 06:14:54;;;;;;;6.43;3.80;;;;;;;7.02;93.70;97898.81;5027066;28;20021;-73
2021/12/24 06:17:22;;;;;;;5.05;2.78;;;;;;;7.28;92.55;97913.34;5025581;28;20045;-75
2021/12/24 06:19:48;;;;;;;7.82;2.83;;;;;;;7.39;92.15;97918.13;5029906;28;20475;-77
2021/12/24 06:22:13;;;;;;;8.07;2.97;;;;;;;7.46;91.27;97916.25;5007354;28;20032;-72
2021/12/24 06:24:39;;;;;;;6.90;3.15;;;;;;;7.43;91.01;97907.78;5009977;28;20505;-72
2021/12/24 06:27:04;;;;;;;5.05;2.85;;;;;;;7.33;91.30;97901.97;5017119;28;20029;-72
2021/12/24 06:29:30;;;;;;;6.15;2.80;;;;;;;7.32;91.45;97905.69;5038429;28;20037;-73
2021/12/24 06:31:55;;;;;;;7.47;3.40;;;;;;;7.20;91.31;97897.38;5055683;28;20048;-73
2021/12/24 06:34:20;;;;;;;6.50;2.75;;;;;;;7.25;90.65;97895.75;5052626;28;20021;-73
2021/12/24 06:36:48;;;;;;;6.30;3.22;;;;;;;7.07;89.97;97906.25;5044068;28;20033;-73
2021/12/24 06:39:15;;;;;;;4.93;2.92;;;;;;;7.06;89.99;97907.28;5047221;28;20029;-73
2021/12/24 06:41:40;;;;;;;5.43;2.90;;;;;;;7.00;90.26;97914.31;5044011;28;20076;-72
2021/12/24 06:44:09;;;;;;;6.30;2.97;;;;;;;6.84;91.05;97913.84;5042863;28;20017;-73
2021/12/24 06:46:35;;;;;;;8.65;3.40;;;;;;;6.82;92.19;97922.13;5028484;28;20072;-73
2021/12/24 06:49:00;;;;;;;9.02;4.00;;;;;;;6.85;92.07;97915.50;5024758;28;20083;-73
2021/12/24 06:51:26;;;;;;;6.35;3.40;;;;;;;6.97;93.07;97916.59;5023756;28;20431;-73
2021/12/24 06:53:52;;;;;;;5.38;2.70;;;;;;;7.13;93.48;97902.78;5024471;28;20023;-73
2021/12/24 06:56:18;;;;;;;6.07;3.00;;;;;;;7.46;92.35;97912.75;5032257;28;20033;-72
2021/12/24 06:58:44;;;;;;;4.28;2.75;;;;;;;7.55;91.54;97906.16;5005615;28;20033;-73
2021/12/24 07:01:09;;;;;;;7.78;2.70;;;;;;;7.89;90.67;97933.91;5018642;28;20121;-72
2021/12/24 07:03:35;;;;;;;5.18;3.20;;;;;;;7.96;90.15;97929.31;5001635;28;20026;-73
2021/12/24 07:06:00;;;;;;;6.35;2.88;;;;;;;8.01;90.29;97926.00;5031280;28;20029;-73
2021/12/24 07:08:26;;;;;;;5.90;3.05;;;;;;;7.98;89.82;97918.34;5033011;28;20025;-73
2021/12/24 07:10:52;;;;;;;5.00;2.85;;;;;;;7.97;89.70;97919.41;5029078;28;20033;-73
2021/12/24 07:13:17;;;;;;;7.43;3.40;;;;;;;8.16;89.76;97915.03;5027988;28;20025;-71
2021/12/24 07:15:43;;;;;;;5.72;3.00;;;;;;;8.23;89.13;97899.69;5031053;28;20029;-76
2021/12/24 07:18:08;;;;;;;10.25;3.55;;;;;;;8.20;89.17;97903.63;5012294;28;20399;-76
2021/12/24 07:20:33;;;;;;;6.30;3.38;;;;;;;8.35;88.94;97925.75;5011853;28;20029;-72
2021/12/24 07:22:59;;;;;;;5.45;2.97;;;;;;;8.34;88.69;97932.19;5029341;28;20068;-72
2021/12/24 07:25:24;;;;;;;5.50;3.15;;;;;;;8.36;88.84;97932.00;5032193;28;20021;-73
2021/12/24 07:27:49;;;;;;;8.93;2.90;;;;;;;8.41;88.34;97924.13;5030707;28;20029;-74
2021/12/24 07:30:16;;;;;;;5.93;3.33;;;;;;;8.40;88.09;97935.13;5010740;28;20029;-73
2021/12/24 07:32:42;;;;;;;5.75;3.05;;;;;;;8.49;87.89;97955.44;5029652;28;20108;-75
2021/12/24 07:35:08;;;;;;;4.45;2.92;;;;;;;8.40;88.37;97941.31;5026347;28;20125;-73
2021/12/24 07:37:33;;;;;;;8.73;3.38;;;;;;;8.45;87.92;97944.22;5014274;28;20599;-72
2021/12/24 07:40:02;;;;;;;6.55;3.63;;;;;;;8.52;87.87;97949.63;5028527;28;20083;-72
2021/12/24 07:42:27;;;;;;;6.28;3.00;;;;;;;8.54;87.68;97942.13;5035376;28;20057;-72
2021/12/24 07:44:52;;;;;;;5.65;3.20;;;;;;;8.55;87.53;97952.69;5014707;28;20049;-74
2021/12/24 07:47:27;;;;;;;6.03;3.22;;;;;;;8.48;87.55;97932.19;5032303;28;20084;-74
2021/12/24 07:50:16;;;;;;;5.38;3.22;;;;;;;8.54;87.10;97921.41;5034203;28;20025;-74
2021/12/24 07:52:42;;;;;;;5.95;3.67;;;;;;;8.67;86.58;97922.38;5026596;28;20550;-74
2021/12/24 07:55:10;;;;;;;5.10;3.42;;;;;;;8.68;86.33;97922.19;5028863;28;20029;-71
2021/12/24 07:57:37;;;;;;;8.60;3.30;;;;;;;8.69;86.26;97901.44;5030221;28;20553;-74
2021/12/24 08:00:05;;;;;;;5.60;3.40;;;;;;;8.72;86.50;97922.56;5034993;28;20036;-74
2021/12/24 08:02:31;;;;;;;6.75;3.13;;;;;;;8.74;86.41;97915.91;5033469;28;20037;-73
2021/12/24 08:04:57;;;;;;;6.15;3.42;;;;;;;8.72;86.00;97925.25;5032952;28;20033;-74
2021/12/24 08:07:22;;;;;;;5.22;3.00;;;;;;;8.72;85.52;97901.84;5032353;28;20099;-72
2021/12/24 08:09:52;;;;;;;4.90;2.97;;;;;;;8.71;86.08;97899.34;5037768;28;20625;-72
2021/12/24 08:12:18;;;;;;;6.97;2.92;;;;;;;8.77;85.33;97910.09;5027255;28;20112;-73
2021/12/24 08:14:45;;;;;;;5.57;3.40;;;;;;;8.82;85.25;97914.84;5043889;28;20490;-72
2021/12/24 08:17:11;;;;;;;5.95;3.58;;;;;;;8.63;85.48;97878.03;5036729;28;20698;-74
2021/12/24 08:19:37;;;;;;;6.28;3.22;;;;;;;8.78;84.95;97897.47;5017238;28;20091;-73
2021/12/24 08:22:04;;;;;;;6.40;2.90;;;;;;;8.83;84.72;97905.75;5036649;28;20072;-73
2021/12/24 08:24:30;;;;;;;6.60;2.80;;;;;;;8.87;84.73;97917.75;5031420;28;20018;-73
2021/12/24 08:26:56;;;;;;;5.53;2.92;;;;;;;8.96;84.08;97905.69;5030726;28;20401;-73
2021/12/24 08:29:22;;;;;;;6.63;2.72;;;;;;;8.96;84.12;97913.78;5018883;28;20033;-72
2021/12/24 08:31:52;;;;;;;5.07;2.55;;;;;;;8.94;83.63;97905.06;5035720;28;20041;-72
2021/12/24 08:34:19;;;;;;;4.88;2.95;;;;;;;8.92;83.49;97900.91;5035092;28;20028;-74
2021/12/24 08:36:46;;;;;;;5.50;3.20;;;;;;;8.96;83.64;97902.97;5030829;28;20032;-70
2021/12/24 08:39:12;;;;;;;6.30;3.30;;;;;;;8.87;83.85;97898.03;5012497;28;20030;-72
2021/12/24 08:41:38;;;;;;;6.55;2.88;;;;;;;9.02;83.51;97914.78;5032926;28;20044;-78
2021/12/24 08:44:04;;;;;;;5.57;2.83;;;;;;;8.97;83.84;97910.00;5037758;28;20097;-74
2021/12/24 08:46:29;;;;;;;5.72;2.88;;;;;;;9.00;83.71;97914.97;5004321;28;20049;-72
2021/12/24 08:48:54;;;;;;;7.75;3.08;;;;;;;8.95;84.12;97916.66;5007660;28;20022;-72
2021/12/24 08:51:20;;;;;;;6.43;2.80;;;;;;;8.81;84.60;97915.09;5023945;28;20045;-73
2021/12/24 08:53:45;;;;;;;4.35;2.47;;;;;;;8.70;84.88;97909.31;5025118;28;20026;-74
2021/12/24 08:56:10;;;;;;;10.07;3.22;;;;;;;8.73;85.00;97897.28;5015965;28;20479;-75
2021/12/24 08:58:37;;;;;;;7.72;3.13;;;;;;;8.65;85.52;97911.81;5030040;28;20073;-74
2021/12/24 09:01:03;;;;;;;6.82;3.40;;;;;;;8.59;85.94;97923.44;5026662;28;20022;-73
2021/12/24 09:03:28;;;;;;;9.90;3.83;;;;;;;8.62;85.63;97922.19;5011011;28;20399;-73
2021/12/24 09:05:54;;;;;;;6.10;3.67;;;;;;;8.49;86.70;97923.06;5014928;28;20017;-71
2021/12/24 09:08:19;;;;;;;7.28;3.92;;;;;;;8.52;86.18;97909.16;5033962;28;20037;-74
2021/12/24 09:10:45;;;;;;;7.55;4.03;;;;;;;8.35;87.58;97919.53;5017338;28;20383;-74
2021/12/24 09:13:10;;;;;;;9.02;4.38;;;;;;;8.40;87.44;97929.72;5033845;28;20041;-72
2021/12/24 09:15:37;;;;;;;6.82;4.18;;;;;;;8.35;88.42;97933.00;5036044;28;20509;-73
2021/12/24 09:18:04;;;;;;;7.47;4.07;;;;;;;8.30;87.90;97920.16;5031445;28;20029;-74
2021/12/24 09:20:36;;;;;;;9.73;4.07;;;;;;;8.28;88.61;97924.94;5031646;28;20494;-74
2021/12/24 09:23:02;;;;;;;7.75;4.25;;;;;;;8.27;87.96;97906.28;5026950;28;20386;-71
2021/12/24 09:25:29;;;;;;;10.05;5.00;;;;;;;8.31;88.27;97939.88;5025783;28;20033;-72
2021/12/24 09:27:55;;;;;;;8.18;4.43;;;;;;;8.18;88.91;97912.97;5033290;28;20412;-77
2021/12/24 09:30:21;;;;;;;9.00;4.43;;;;;;;8.27;89.17;97925.97;5040069;28;20040;-75
2021/12/24 09:32:46;;;;;;;8.23;4.70;;;;;;;8.29;89.12;97915.00;5030878;28;20017;-72
2021/12/24 09:35:12;;;;;;;12.75;5.82;;;;;;;8.33;88.30;97916.22;5032445;28;20025;-73
2021/12/24 09:37:39;;;;;;;8.75;5.32;;;;;;;8.34;89.35;97917.88;5025458;28;20064;-72
2021/12/24 09:40:06;;;;;;;6.60;4.65;;;;;;;8.33;90.24;97924.31;5025343;28;20053;-71
2021/12/24 09:42:32;;;;;;;12.23;5.07;;;;;;;8.12;92.22;97915.44;5033906;28;20437;-73
2021/12/24 09:44:58;;;;;;;9.98;4.43;;;;;;;7.97;93.23;97903.25;5016848;28;20022;-74
2021/12/24 09:47:24;;;;;;;10.38;5.35;;;;;;;7.95;94.55;97927.69;5040561;28;20037;-70
2021/12/24 09:49:50;;;;;;;9.35;4.72;;;;;;;7.77;95.74;97911.31;5022713;28;20155;-69
2021/12/24 09:52:17;;;;;;;10.25;4.68;;;;;;;7.78;97.14;97915.66;5028957;28;20108;-71
2021/12/24 09:54:45;;;;;;;8.65;5.97;;;;;;;7.65;98.58;97909.25;5030604;28;20025;-72
2021/12/24 09:57:10;;;;;;;11.13;5.63;;;;;;;7.53;98.78;97894.75;5012449;28;20100;-72
2021/12/24 09:59:36;;;;;;;11.68;5.78;;;;;;;7.59;99.82;97912.75;5021538;28;20491;-73
2021/12/24 10:02:03;;;;;;;7.85;4.70;;;;;;;7.65;100.00;97917.34;5019250;28;20021;-71
2021/12/24 10:04:34;;;;;;;11.82;4.75;;;;;;;7.66;100.00;97918.16;5021908;28;20112;-71
2021/12/24 10:07:08;;;;;;;9.05;4.90;;;;;;;7.62;100.00;97920.44;5019166;28;20043;-71
2021/12/24 10:09:36;;;;;;;12.07;4.78;;;;;;;7.65;100.00;97903.03;5018796;28;20029;-72
2021/12/24 10:12:14;;;;;;;9.38;4.60;;;;;;;7.50;100.00;97870.13;5006640;28;20036;-73
2021/12/24 10:14:46;;;;;;;7.18;4.40;;;;;;;7.71;100.00;97909.47;5015189;28;20025;-73
2021/12/24 10:17:18;;;;;;;9.75;5.20;;;;;;;7.69;100.00;97898.91;5034286;28;20112;-73
2021/12/24 10:19:49;;;;;;;7.95;4.75;;;;;;;7.68;100.00;97897.25;5039305;28;20037;-74
2021/12/24 10:22:15;;;;;;;12.13;5.55;;;;;;;7.71;100.00;97912.97;5031400;28;20104;-76
2021/12/24 10:24:41;;;;;;;11.13;6.13;;;;;;;7.69;100.00;97905.09;5016383;28;20021;-73
2021/12/24 10:27:07;;;;;;;13.65;5.50;;;;;;;7.58;100.00;97878.81;5036804;28;20032;-75
2021/12/24 10:29:37;;;;;;;9.60;4.68;;;;;;;7.59;100.00;97885.00;5008376;28;20120;-75
2021/12/24 10:32:11;;;;;;;8.40;4.57;;;;;;;7.59;100.00;97893.91;5035224;28;20040;-76
2021/12/24 10:34:38;;;;;;;9.45;5.45;;;;;;;7.58;100.00;97897.66;5012580;28;20033;-75
2021/12/24 10:37:25;;;;;;;10.85;6.20;;;;;;;7.44;100.00;97882.50;5032833;28;20040;-74
2021/12/24 10:40:01;;;;;;;13.75;7.18;;;;;;;7.43;100.00;97897.84;5028574;28;20025;-74
2021/12/24 10:42:37;;;;;;;10.30;5.72;;;;;;;7.42;100.00;97890.00;5036186;28;20037;-73
2021/12/24 10:45:23;;;;;;;8.30;5.28;;;;;;;7.40;100.00;97886.66;5032575;28;20021;-72
2021/12/24 10:47:49;;;;;;;11.10;5.28;;;;;;;7.37;100.00;97885.22;5032063;28;20443;-75
2021/12/24 10:55:23;;;;;;;9.45;4.72;;;;;;;7.34;100.00;97887.50;5028106;28;20487;-71
2021/12/24 10:57:51;;;;;;;12.82;6.20;;;;;;;7.30;100.00;97870.91;5029310;28;20040;-71
2021/12/24 11:00:49;;;;;;;8.15;4.95;;;;;;;7.34;100.00;97872.19;5018585;28;20036;-71
2021/12/24 11:03:21;;;;;;;11.82;6.72;;;;;;;7.35;100.00;97873.00;4967642;28;20041;-71
2021/12/24 11:06:03;;;;;;;10.38;6.55;;;;;;;7.29;100.00;97879.22;5017935;28;20036;-72
2021/12/24 11:08:29;;;;;;;15.38;7.75;;;;;;;7.34;100.00;97865.97;5022321;28;20136;-71
2021/12/24 11:10:59;;;;;;;16.90;7.97;;;;;;;7.31;100.00;97871.75;5019682;28;20034;-71
2021/12/24 11:13:35;;;;;;;14.15;7.35;;;;;;;7.31;100.00;97863.66;5022188;28;20024;-71
2021/12/24 11:16:06;;;;;;;12.55;7.35;;;;;;;7.24;100.00;97867.19;5006828;28;20041;-71
2021/12/24 11:18:34;;;;;;;17.95;7.53;;;;;;;7.29;100.00;97860.38;5021173;28;20559;-72
2021/12/24 11:21:27;;;;;;;12.23;6.97;;;;;;;7.11;100.00;97842.97;5022753;28;20790;-71
2021/12/24 11:23:53;;;;;;;14.70;8.10;;;;;;;7.25;100.00;97865.31;5034251;28;20041;-71
2021/12/24 11:26:23;;;;;;;15.80;7.68;;;;;;;7.18;100.00;97856.44;5032030;28;20034;-71
2021/12/24 11:28:48;;;;;;;;;;;;;;;7.18;100.00;97868.03;5014073;28;20029;-72
2021/12/24 11:31:18;;;;;;;15.90;7.72;;;;;;;7.19;100.00;97858.09;5010041;28;19924;-72
2021/12/24 11:33:45;;;;;;;15.73;7.85;;;;;;;7.16;100.00;97853.94;5000731;28;20585;-72
2021/12/24 11:36:15;;;;;;;15.77;8.05;;;;;;;7.22;100.00;97846.91;5025891;28;20026;-72
2021/12/24 11:38:46;;;;;;;13.90;7.22;;;;;;;7.29;100.00;97852.31;5040854;28;20025;-72
2021/12/24 11:41:15;;;;;;;13.95;6.50;;;;;;;7.31;100.00;97844.84;5024013;28;20056;-72
2021/12/24 11:43:42;;;;;;;12.77;6.43;;;;;;;7.30;100.00;97849.41;5008392;28;20034;-72
2021/12/24 11:46:10;;;;;;;13.75;6.45;;;;;;;7.25;100.00;97847.31;5019301;28;20102;-71
2021/12/24 11:48:37;;;;;;;15.02;6.50;;;;;;;7.32;100.00;97838.44;5027779;28;20617;-72
2021/12/24 11:51:28;;;;;;;10.07;5.75;;;;;;;7.49;100.00;97828.91;5023378;28;20036;-71
2021/12/24 11:54:00;;;;;;;13.13;5.38;;;;;;;7.43;100.00;97843.19;5020755;28;20030;-72
2021/12/24 11:56:25;;;;;;;11.80;5.95;;;;;;;7.41;100.00;97834.50;5024841;28;20593;-71
2021/12/24 11:58:54;;;;;;;13.52;6.63;;;;;;;7.45;100.00;97835.75;5034403;28;20124;-71
2021/12/24 12:01:21;;;;;;;14.02;5.72;;;;;;;7.56;100.00;97831.59;5028953;28;20038;-71
2021/12/24 12:03:51;;;;;;;9.77;5.60;;;;;;;7.62;100.00;97828.91;5021820;28;20383;-71
2021/12/24 12:06:16;;;;;;;14.60;5.50;;;;;;;7.69;100.00;97827.03;5012927;28;20491;-71
2021/12/24 12:08:43;;;;;;;13.38;5.90;;;;;;;7.74;100.00;97815.63;5019842;28;20041;-71
2021/12/24 12:11:41;;;;;;;10.63;5.50;;;;;;;7.81;100.00;97818.34;5015524;28;20029;-72
2021/12/24 12:14:15;;;;;;;12.18;6.80;;;;;;;7.78;100.00;97821.41;5007544;28;20132;-71
2021/12/24 12:16:43;;;;;;;11.85;7.28;;;;;;;7.77;100.00;97811.69;5018263;28;20041;-71
2021/12/24 12:25:30;;;;;;;10.75;4.72;;;;;;;7.87;100.00;97799.44;5025910;28;20029;-71
2021/12/24 12:27:58;;;;;;;10.60;5.30;;;;;;;7.84;100.00;97793.66;5040262;28;20028;-71
2021/12/24 12:30:25;;;;;;;7.97;4.50;;;;;;;7.88;100.00;97797.56;5050119;28;20021;-71
2021/12/24 12:33:04;;;;;;;13.02;5.22;;;;;;;7.87;100.00;97772.53;5036608;28;20025;-72
2021/12/24 12:35:45;;;;;;;12.25;4.80;;;;;;;7.84;100.00;97793.66;5049279;28;20072;-71
2021/12/24 12:38:25;;;;;;;9.77;5.20;;;;;;;7.69;100.00;97800.09;5050620;28;20173;-71
2021/12/24 12:40:50;;;;;;;;;;;;;;;7.75;100.00;97792.22;5038257;28;20049;-72
2021/12/24 12:43:18;;;;;;;12.55;6.10;;;;;;;7.70;100.00;97792.84;5026549;28;19960;-71
2021/12/24 12:45:43;;;;;;;10.98;5.68;;;;;;;7.68;100.00;97782.31;5025345;28;20116;-71
2021/12/24 12:48:11;;;;;;;24.00;12.40;;;;;;;7.64;100.00;97775.69;5027235;28;20025;-71
2021/12/24 12:50:40;;;;;;;27.27;13.98;;;;;;;7.54;100.00;97769.88;5009464;28;20033;-71
2021/12/24 12:53:26;;;;;;;20.40;9.88;;;;;;;7.54;100.00;97769.06;5021580;28;20054;-70
2021/12/24 12:56:13;;;;;;;22.00;11.00;;;;;;;7.56;100.00;97767.00;5033548;28;20025;-70
2021/12/24 12:58:41;;;;;;;20.83;11.00;;;;;;;7.44;100.00;97773.03;5032311;28;20078;-70
2021/12/24 13:01:12;;;;;;;21.80;9.65;;;;;;;7.44;100.00;97780.25;5035937;28;20179;-70
2021/12/24 13:03:55;;;;;;;20.48;9.85;;;;;;;7.35;100.00;97776.13;5035587;28;20401;-70
2021/12/24 13:06:24;;;;;;;19.40;7.38;;;;;;;7.35;100.00;97774.25;5034127;28;20025;-70
2021/12/24 13:08:50;;;;;;;12.35;5.93;;;;;;;7.33;100.00;97770.13;5020384;28;20086;-70
2021/12/24 13:11:20;;;;;;;10.00;5.38;;;;;;;7.06;100.00;97721.72;5033773;28;20043;-71
2021/12/24 13:13:59;;;;;;;16.58;5.20;;;;;;;7.37;100.00;97766.81;5029652;28;20025;-70
2021/12/24 13:16:31;;;;;;;10.75;6.20;;;;;;;7.40;100.00;97763.72;5030971;28;20067;-70
2021/12/24 13:19:15;;;;;;;11.38;6.15;;;;;;;7.40;100.00;97766.41;5033205;28;20917;-70
2021/12/24 13:24:51;;;;;;;13.63;5.47;;;;;;;7.41;100.00;97764.53;5024201;28;20087;-70
2021/12/24 13:27:19;;;;;;;15.45;6.32;;;;;;;7.44;100.00;97766.78;5026390;28;20803;-70
2021/12/24 13:29:45;;;;;;;12.45;6.32;;;;;;;7.36;100.00;97759.78;5014941;28;20043;-70
2021/12/24 13:32:11;;;;;;;16.02;6.90;;;;;;;7.37;100.00;97761.44;5027488;28;20036;-70